Capt. Jerry J. Wiltz — WDG4175 — position and weather

sailwx.info

Track history (hours):
 
Tides and Currents Weather Stations Pressure Air Temp Water Temp Dewpoint Dewpoint Depression Visibility Wind Speed Wind Dir Waves Ship Positions

Capt. Jerry J. Wiltz

Owner: Florida Marine, LLC, Mandeville, LA. More information available from US FCC via Universal Licensing System and Coast Guard Vessel Documentation Center.

Last reported at 2017-Nov-09 04:21 UTC. Time now 2017-Nov-19 15:50 UTC.
Position N 29°50' W 091°57'.
Warning: this ship's position is 10 days out of date.

Length 27 m; draft 2.8 m.

Type: Towing. MMSI: 367533780.

Date/timePositionNaut miles runAvg speedWind from/ knotsBaromVisibWave heightAir tempDewpointWater temp
2017-Nov-09 04:21N 29°50' W 091°57'2 4.9
2017-Nov-09 04:00N 29°50' W 091°59'2 4.7
2017-Nov-09 03:30N 29°49' W 092°02'2 4.8
2017-Nov-09 03:00N 29°48' W 092°04'3 5.0
2017-Nov-09 02:30N 29°48' W 092°07'2 4.9
2017-Nov-09 02:00N 29°47' W 092°09'2 4.2
2017-Nov-09 01:30N 29°47' W 092°12'3 5.3
2017-Nov-09 01:00N 29°48' W 092°15'3 5.4
2017-Nov-09 00:30N 29°49' W 092°17'2 4.9
2017-Nov-09 00:00N 29°51' W 092°20'39 5.0
2017-Nov-08 16:13N 29°56' W 093°04'1 4.7
2017-Nov-08 16:00N 29°56' W 093°05'2 4.9
2017-Nov-08 15:30N 29°56' W 093°08'2 4.6
2017-Nov-08 15:00N 29°57' W 093°10'3 5.1
2017-Nov-08 14:30N 29°59' W 093°12'2 4.4
2017-Nov-08 14:00N 30°01' W 093°14'2 4.1
2017-Nov-08 13:30N 30°02' W 093°15'2 4.3
2017-Nov-08 13:00N 30°04' W 093°16'2 3.2
2017-Nov-08 12:30N 30°05' W 093°18'1 2.5
2017-Nov-08 12:00N 30°06' W 093°19'0 0.5
2017-Nov-08 11:30N 30°06' W 093°19'1 2.9
2017-Nov-08 11:00N 30°05' W 093°20'2 4.0
2017-Nov-08 10:30N 30°04' W 093°22'2 3.9
2017-Nov-08 10:00N 30°04' W 093°24'2 4.2
2017-Nov-08 09:30N 30°04' W 093°27'2 4.2
2017-Nov-08 09:00N 30°04' W 093°29'2 4.2
2017-Nov-08 08:30N 30°04' W 093°32'  
2017-Nov-04 22:56N 30°04' W 093°41'3 6.6
2017-Nov-04 22:30N 30°04' W 093°37'3 6.7
2017-Nov-04 22:00N 30°04' W 093°33'3 6.3
2017-Nov-04 21:30N 30°04' W 093°30'3 6.4
2017-Nov-04 21:00N 30°04' W 093°26'3 6.2
2017-Nov-04 20:30N 30°04' W 093°23'2 4.7
2017-Nov-04 20:00N 30°05' W 093°20'2 4.1
2017-Nov-04 19:30N 30°06' W 093°18'3 5.2
2017-Nov-04 19:00N 30°04' W 093°16'3 5.5
2017-Nov-04 18:30N 30°02' W 093°14'3 5.9
2017-Nov-04 18:00N 29°59' W 093°13'4 6.7
2017-Nov-04 17:24N 29°56' W 093°10'41 3.7
2017-Nov-04 06:18N 29°52' W 092°22'2 5.3
2017-Nov-04 06:00N 29°51' W 092°21'3 5.8
2017-Nov-04 05:30N 29°50' W 092°18'1 1.7
2017-Nov-04 05:00N 29°49' W 092°18'1 1.8
2017-Nov-04 04:30N 29°49' W 092°17'3 6.0
2017-Nov-04 04:00N 29°48' W 092°14'0 0.0
2017-Nov-04 03:30N 29°48' W 092°14'0 0.0
2017-Nov-04 03:00N 29°48' W 092°14'0 0.0
2017-Nov-04 02:30N 29°48' W 092°14'0 0.0
2017-Nov-04 02:00N 29°48' W 092°14'0 0.4
2017-Nov-04 01:30N 29°48' W 092°13'1 2.5
2017-Nov-04 01:00N 29°47' W 092°12'3 5.3
2017-Nov-04 00:30N 29°47' W 092°09'3 6.1
2017-Nov-04 00:00N 29°48' W 092°06'3 6.2
2017-Nov-03 23:30N 29°49' W 092°02'  
2017-Oct-31 08:56N 29°51' W 091°55'2 4.8
2017-Oct-31 08:30N 29°50' W 091°57'2 4.9
2017-Oct-31 08:00N 29°50' W 091°60'2 3.7
2017-Oct-31 07:30N 29°49' W 092°02'2 4.8
2017-Oct-31 07:00N 29°48' W 092°04'3 5.1
2017-Oct-31 06:30N 29°47' W 092°07'2 4.9
2017-Oct-31 06:00N 29°47' W 092°10'2 3.9
2017-Oct-31 05:30N 29°47' W 092°12'2 4.2
2017-Oct-31 05:00N 29°48' W 092°14'3 5.0
2017-Oct-31 04:30N 29°49' W 092°17'2 4.5
2017-Oct-31 04:00N 29°50' W 092°19'40 4.5
2017-Oct-30 19:11N 29°56' W 093°04'1 4.7
2017-Oct-30 18:59N 29°56' W 093°05'2 4.8
2017-Oct-30 18:30N 29°56' W 093°08'2 4.3
2017-Oct-30 18:00N 29°57' W 093°10'2 4.2
2017-Oct-30 17:30N 29°58' W 093°12'2 4.7
2017-Oct-30 17:00N 30°00' W 093°14'2 4.3
2017-Oct-30 16:30N 30°02' W 093°15'2 4.3
2017-Oct-30 16:00N 30°04' W 093°16'2 4.2
2017-Oct-30 15:30N 30°05' W 093°18'0 0.5
2017-Oct-30 15:00N 30°05' W 093°18'1 1.6
2017-Oct-30 14:30N 30°06' W 093°18'0 0.1
2017-Oct-30 13:30N 30°06' W 093°18'0 0.1
2017-Oct-30 13:00N 30°06' W 093°18'0 0.4
2017-Oct-30 12:30N 30°06' W 093°19'0 0.6
2017-Oct-30 12:00N 30°06' W 093°19'0 0.0
2017-Oct-30 11:30N 30°06' W 093°19'0 0.0
2017-Oct-30 11:00N 30°06' W 093°19'0 0.1
2017-Oct-30 10:30N 30°06' W 093°19'0 0.3
2017-Oct-30 10:00N 30°06' W 093°19'1 1.9
2017-Oct-30 09:30N 30°05' W 093°20'1 1.8
2017-Oct-30 09:00N 30°04' W 093°20'1 2.2
2017-Oct-30 08:30N 30°04' W 093°21'1 2.0
2017-Oct-30 08:00N 30°04' W 093°22'2 3.4
2017-Oct-30 07:30N 30°04' W 093°24'3 5.2
2017-Oct-30 07:00N 30°04' W 093°27'3 5.3
2017-Oct-30 06:30N 30°04' W 093°30'3 5.3
2017-Oct-30 05:57N 30°04' W 093°34'  
Track history (hours):
 
Tides and Currents Weather Stations Pressure Air Temp Water Temp Dewpoint Dewpoint Depression Visibility Wind Speed Wind Dir Waves Ship Positions

Capt. Jerry J. Wiltz

Owner: Florida Marine, LLC, Mandeville, LA. More information available from US FCC via Universal Licensing System and Coast Guard Vessel Documentation Center.

Last reported at 2017-Nov-09 04:21 UTC. Time now 2017-Nov-19 15:50 UTC.
Position N 29°50' W 091°57'.
Warning: this ship's position is 10 days out of date.

Length 27 m; draft 2.8 m.

Type: Towing. MMSI: 367533780.

Date/timePositionNaut miles runAvg speedWind from/ knotsBaromVisibWave heightAir tempDewpointWater temp
2017-Nov-09 04:21N 29°50' W 091°57'2 4.9
2017-Nov-09 04:00N 29°50' W 091°59'2 4.7
2017-Nov-09 03:30N 29°49' W 092°02'2 4.8
2017-Nov-09 03:00N 29°48' W 092°04'3 5.0
2017-Nov-09 02:30N 29°48' W 092°07'2 4.9
2017-Nov-09 02:00N 29°47' W 092°09'2 4.2
2017-Nov-09 01:30N 29°47' W 092°12'3 5.3
2017-Nov-09 01:00N 29°48' W 092°15'3 5.4
2017-Nov-09 00:30N 29°49' W 092°17'2 4.9
2017-Nov-09 00:00N 29°51' W 092°20'39 5.0
2017-Nov-08 16:13N 29°56' W 093°04'1 4.7
2017-Nov-08 16:00N 29°56' W 093°05'2 4.9
2017-Nov-08 15:30N 29°56' W 093°08'2 4.6
2017-Nov-08 15:00N 29°57' W 093°10'3 5.1
2017-Nov-08 14:30N 29°59' W 093°12'2 4.4
2017-Nov-08 14:00N 30°01' W 093°14'2 4.1
2017-Nov-08 13:30N 30°02' W 093°15'2 4.3
2017-Nov-08 13:00N 30°04' W 093°16'2 3.2
2017-Nov-08 12:30N 30°05' W 093°18'1 2.5
2017-Nov-08 12:00N 30°06' W 093°19'0 0.5
2017-Nov-08 11:30N 30°06' W 093°19'1 2.9
2017-Nov-08 11:00N 30°05' W 093°20'2 4.0
2017-Nov-08 10:30N 30°04' W 093°22'2 3.9
2017-Nov-08 10:00N 30°04' W 093°24'2 4.2
2017-Nov-08 09:30N 30°04' W 093°27'2 4.2
2017-Nov-08 09:00N 30°04' W 093°29'2 4.2
2017-Nov-08 08:30N 30°04' W 093°32'  
2017-Nov-04 22:56N 30°04' W 093°41'3 6.6
2017-Nov-04 22:30N 30°04' W 093°37'3 6.7
2017-Nov-04 22:00N 30°04' W 093°33'3 6.3
2017-Nov-04 21:30N 30°04' W 093°30'3 6.4
2017-Nov-04 21:00N 30°04' W 093°26'3 6.2
2017-Nov-04 20:30N 30°04' W 093°23'2 4.7
2017-Nov-04 20:00N 30°05' W 093°20'2 4.1
2017-Nov-04 19:30N 30°06' W 093°18'3 5.2
2017-Nov-04 19:00N 30°04' W 093°16'3 5.5
2017-Nov-04 18:30N 30°02' W 093°14'3 5.9
2017-Nov-04 18:00N 29°59' W 093°13'4 6.7
2017-Nov-04 17:24N 29°56' W 093°10'41 3.7
2017-Nov-04 06:18N 29°52' W 092°22'2 5.3
2017-Nov-04 06:00N 29°51' W 092°21'3 5.8
2017-Nov-04 05:30N 29°50' W 092°18'1 1.7
2017-Nov-04 05:00N 29°49' W 092°18'1 1.8
2017-Nov-04 04:30N 29°49' W 092°17'3 6.0
2017-Nov-04 04:00N 29°48' W 092°14'0 0.0
2017-Nov-04 03:30N 29°48' W 092°14'0 0.0
2017-Nov-04 03:00N 29°48' W 092°14'0 0.0
2017-Nov-04 02:30N 29°48' W 092°14'0 0.0
2017-Nov-04 02:00N 29°48' W 092°14'0 0.4
2017-Nov-04 01:30N 29°48' W 092°13'1 2.5
2017-Nov-04 01:00N 29°47' W 092°12'3 5.3
2017-Nov-04 00:30N 29°47' W 092°09'3 6.1
2017-Nov-04 00:00N 29°48' W 092°06'3 6.2
2017-Nov-03 23:30N 29°49' W 092°02'  
2017-Oct-31 08:56N 29°51' W 091°55'2 4.8
2017-Oct-31 08:30N 29°50' W 091°57'2 4.9
2017-Oct-31 08:00N 29°50' W 091°60'2 3.7
2017-Oct-31 07:30N 29°49' W 092°02'2 4.8
2017-Oct-31 07:00N 29°48' W 092°04'3 5.1
2017-Oct-31 06:30N 29°47' W 092°07'2 4.9
2017-Oct-31 06:00N 29°47' W 092°10'2 3.9
2017-Oct-31 05:30N 29°47' W 092°12'2 4.2
2017-Oct-31 05:00N 29°48' W 092°14'3 5.0
2017-Oct-31 04:30N 29°49' W 092°17'2 4.5
2017-Oct-31 04:00N 29°50' W 092°19'40 4.5
2017-Oct-30 19:11N 29°56' W 093°04'1 4.7
2017-Oct-30 18:59N 29°56' W 093°05'2 4.8
2017-Oct-30 18:30N 29°56' W 093°08'2 4.3
2017-Oct-30 18:00N 29°57' W 093°10'2 4.2
2017-Oct-30 17:30N 29°58' W 093°12'2 4.7
2017-Oct-30 17:00N 30°00' W 093°14'2 4.3
2017-Oct-30 16:30N 30°02' W 093°15'2 4.3
2017-Oct-30 16:00N 30°04' W 093°16'2 4.2
2017-Oct-30 15:30N 30°05' W 093°18'0 0.5
2017-Oct-30 15:00N 30°05' W 093°18'1 1.6
2017-Oct-30 14:30N 30°06' W 093°18'0 0.1
2017-Oct-30 13:30N 30°06' W 093°18'0 0.1
2017-Oct-30 13:00N 30°06' W 093°18'0 0.4
2017-Oct-30 12:30N 30°06' W 093°19'0 0.6
2017-Oct-30 12:00N 30°06' W 093°19'0 0.0
2017-Oct-30 11:30N 30°06' W 093°19'0 0.0
2017-Oct-30 11:00N 30°06' W 093°19'0 0.1
2017-Oct-30 10:30N 30°06' W 093°19'0 0.3
2017-Oct-30 10:00N 30°06' W 093°19'1 1.9
2017-Oct-30 09:30N 30°05' W 093°20'1 1.8
2017-Oct-30 09:00N 30°04' W 093°20'1 2.2
2017-Oct-30 08:30N 30°04' W 093°21'1 2.0
2017-Oct-30 08:00N 30°04' W 093°22'2 3.4
2017-Oct-30 07:30N 30°04' W 093°24'3 5.2
2017-Oct-30 07:00N 30°04' W 093°27'3 5.3
2017-Oct-30 06:30N 30°04' W 093°30'3 5.3
2017-Oct-30 05:57N 30°04' W 093°34'  

Dump ship's entire track history